createdAt,value
2022-11-09T06:59:32.997Z,15.50
2022-11-09T07:02:02.446Z,15.54
2022-11-09T07:04:30.447Z,15.55
2022-11-09T07:06:58.633Z,15.53
2022-11-09T07:09:27.192Z,15.67
2022-11-09T07:11:55.085Z,15.79
2022-11-09T07:14:24.114Z,15.53
2022-11-09T07:16:53.588Z,15.77
2022-11-09T07:19:23.160Z,15.79
2022-11-09T07:21:51.004Z,15.65
2022-11-09T07:24:18.953Z,15.66
2022-11-09T07:26:49.546Z,15.56
2022-11-09T07:29:21.285Z,15.64
2022-11-09T07:31:49.888Z,15.57
2022-11-09T07:34:19.273Z,15.82
2022-11-09T07:36:47.231Z,15.59
2022-11-09T07:39:15.490Z,15.58
2022-11-09T07:41:43.987Z,15.79
2022-11-09T07:44:15.207Z,15.64
2022-11-09T07:46:43.098Z,15.91
2022-11-09T07:49:11.441Z,15.64
2022-11-09T07:51:41.090Z,15.83
2022-11-09T07:54:10.007Z,15.62
2022-11-09T07:56:38.819Z,15.69
2022-11-09T07:59:09.698Z,15.90
2022-11-09T08:01:38.009Z,15.74
2022-11-09T08:04:06.281Z,15.68
2022-11-09T08:06:34.915Z,15.99
2022-11-09T08:09:05.139Z,16.00
2022-11-09T08:11:32.976Z,16.07
2022-11-09T08:14:00.879Z,16.11
2022-11-09T08:16:32.266Z,16.13
2022-11-09T08:19:04.641Z,16.12
2022-11-09T08:21:32.578Z,16.05
2022-11-09T08:24:00.508Z,16.18
2022-11-09T08:26:30.388Z,16.27
2022-11-09T08:28:58.571Z,16.21
2022-11-09T08:31:26.699Z,16.51
2022-11-09T08:33:54.767Z,16.45
2022-11-09T08:36:22.694Z,16.63
2022-11-09T08:38:50.939Z,16.40
2022-11-09T08:52:19.876Z,16.51
2022-11-09T08:54:47.929Z,16.63
2022-11-09T08:57:16.019Z,16.85
2022-11-09T08:59:43.942Z,16.67
2022-11-09T09:02:12.791Z,16.83
2022-11-09T09:04:48.077Z,16.88
2022-11-09T09:07:16.686Z,16.57
2022-11-09T09:09:48.902Z,16.80
2022-11-09T09:12:17.212Z,16.76
2022-11-09T09:14:45.449Z,16.67
2022-11-09T09:17:14.345Z,16.81
2022-11-09T09:19:47.390Z,16.58
2022-11-09T09:22:36.382Z,16.69
2022-11-09T09:30:34.673Z,16.73
2022-11-09T09:33:10.694Z,16.52
2022-11-09T09:38:20.609Z,16.77
2022-11-09T09:41:04.274Z,16.62
2022-11-09T09:43:46.059Z,16.52
2022-11-09T09:46:25.179Z,16.70
2022-11-09T09:57:42.141Z,16.95
2022-11-09T10:00:25.761Z,16.73
2022-11-09T10:03:07.401Z,16.95
2022-11-09T10:11:13.528Z,17.31
2022-11-09T10:14:01.617Z,17.24
2022-11-09T10:16:40.523Z,17.11
2022-11-09T10:19:33.196Z,17.40
2022-11-09T10:22:11.486Z,17.13
2022-11-09T10:27:28.783Z,17.23
2022-11-09T10:30:03.241Z,17.22
2022-11-09T10:32:34.228Z,17.19
2022-11-09T10:35:16.835Z,17.31
2022-11-09T10:37:49.102Z,17.23
2022-11-09T10:40:20.872Z,17.18
2022-11-09T10:42:52.906Z,17.13
2022-11-09T10:45:30.292Z,17.17
2022-11-09T10:47:59.604Z,17.25
2022-11-09T10:50:36.773Z,17.10
2022-11-09T10:53:16.510Z,17.26
2022-11-09T10:55:56.452Z,17.08
2022-11-09T10:58:39.214Z,17.11
2022-11-09T11:01:15.227Z,17.09
2022-11-09T11:03:55.023Z,17.15
2022-11-09T11:11:44.702Z,16.96
2022-11-09T11:14:34.804Z,16.81
2022-11-09T11:17:36.176Z,17.09
2022-11-09T11:20:27.693Z,17.09
2022-11-09T11:25:30.911Z,17.01
2022-11-09T11:28:12.504Z,17.05
2022-11-09T11:30:40.773Z,16.81
2022-11-09T11:33:16.056Z,16.84
2022-11-09T11:35:52.764Z,16.79
2022-11-09T11:38:28.859Z,16.75
2022-11-09T11:41:05.906Z,16.79
2022-11-09T11:43:48.098Z,16.95
2022-11-09T11:46:24.561Z,16.96
2022-11-09T11:49:36.494Z,16.94
2022-11-09T11:52:12.296Z,16.79
2022-11-09T11:54:54.513Z,16.81
2022-11-09T11:57:36.546Z,16.83
2022-11-09T12:00:13.496Z,16.81
2022-11-09T12:03:11.476Z,16.81
2022-11-09T12:05:59.492Z,16.87
2022-11-09T12:08:38.435Z,16.83
2022-11-09T12:11:21.676Z,16.85
2022-11-09T12:14:03.607Z,16.79
2022-11-09T12:16:41.633Z,16.82
2022-11-09T14:43:28.782Z,15.84
2022-11-09T14:45:59.698Z,16.14
2022-11-09T14:48:32.125Z,15.81
2022-11-09T14:51:08.861Z,15.98
2022-11-09T14:53:40.158Z,15.84
2022-11-09T15:07:06.623Z,15.75
2022-11-09T15:09:43.167Z,15.71
2022-11-09T15:12:19.026Z,15.71
2022-11-09T15:17:31.748Z,15.87
2022-11-09T15:20:06.839Z,15.71
2022-11-09T15:22:50.710Z,15.71
2022-11-09T15:25:32.505Z,15.84
2022-11-09T15:28:25.449Z,15.70
2022-11-09T15:39:33.169Z,15.87
2022-11-09T15:42:00.981Z,15.96
2022-11-09T15:44:29.546Z,15.89
2022-11-09T15:46:58.731Z,15.85
2022-11-09T15:49:29.415Z,15.93
2022-11-09T15:51:58.399Z,15.87
2022-11-09T15:54:29.037Z,15.83
2022-11-09T15:56:58.465Z,15.86
2022-11-09T15:59:27.852Z,15.66
2022-11-09T16:01:58.760Z,15.66
2022-11-09T16:04:26.750Z,15.68
2022-11-09T16:06:54.728Z,15.71
2022-11-09T16:09:41.289Z,15.70
2022-11-09T16:12:23.294Z,15.59
